createdAt,value
2022-08-26T00:00:28.682Z,97852.25
2022-08-26T00:01:33.278Z,97848.03
2022-08-26T00:02:37.605Z,97843.81
2022-08-26T00:03:41.339Z,97845.81
2022-08-26T00:04:44.146Z,97842.94
2022-08-26T00:05:48.528Z,97843.03
2022-08-26T00:06:51.938Z,97845.31
2022-08-26T00:07:54.952Z,97844.44
2022-08-26T00:08:58.059Z,97847.03
2022-08-26T00:10:00.891Z,97844.19
2022-08-26T00:11:08.281Z,97843.37
2022-08-26T00:12:12.182Z,97844.56
2022-08-26T00:13:15.755Z,97845.19
2022-08-26T00:14:30.781Z,97846.72
2022-08-26T00:15:34.075Z,97842.59
2022-08-26T00:16:37.812Z,97842.69
2022-08-26T00:17:44.056Z,97841.34
2022-08-26T00:18:47.004Z,97839.19
2022-08-26T00:19:49.971Z,97838.97
2022-08-26T00:20:55.696Z,97841.19
2022-08-26T00:21:58.631Z,97845.31
2022-08-26T00:23:02.972Z,97846.50
2022-08-26T00:24:06.478Z,97845.09
2022-08-26T00:25:10.534Z,97840.19
2022-08-26T00:26:14.052Z,97838.84
2022-08-26T00:27:17.161Z,97844.72
2022-08-26T00:28:20.669Z,97849.56
2022-08-26T00:29:24.529Z,97844.16
2022-08-26T00:30:29.733Z,97846.25
2022-08-26T00:31:33.754Z,97851.13
2022-08-26T00:32:43.995Z,97846.94
2022-08-26T00:33:49.560Z,97844.16
2022-08-26T00:34:52.674Z,97846.06
2022-08-26T00:35:55.599Z,97846.72
2022-08-26T00:36:58.877Z,97847.16
2022-08-26T00:38:02.758Z,97847.19
2022-08-26T00:39:07.832Z,97844.53
2022-08-26T00:40:20.709Z,97838.94
2022-08-26T00:41:23.905Z,97842.50
2022-08-26T00:42:27.974Z,97845.22
2022-08-26T00:43:47.415Z,97841.84
2022-08-26T00:44:51.806Z,97841.00
2022-08-26T00:46:22.007Z,97837.59
2022-08-26T00:47:34.434Z,97843.94
2022-08-26T00:48:40.253Z,97838.22
2022-08-26T00:49:47.837Z,97843.31
2022-08-26T00:50:56.123Z,97836.00
2022-08-26T00:52:03.661Z,97829.00
2022-08-26T00:53:24.104Z,97838.81
2022-08-26T00:54:34.029Z,97831.22
2022-08-26T00:55:41.018Z,97836.72
2022-08-26T00:56:53.307Z,97834.72
2022-08-26T00:57:56.386Z,97832.66
2022-08-26T00:59:02.923Z,97833.09
2022-08-26T01:00:12.926Z,97837.97
2022-08-26T01:01:22.903Z,97828.22
2022-08-26T01:02:26.601Z,97828.87
2022-08-26T01:03:34.971Z,97836.50
2022-08-26T01:04:39.379Z,97835.28
2022-08-26T01:05:42.775Z,97840.00
2022-08-26T01:06:48.810Z,97835.97
2022-08-26T01:07:52.264Z,97828.34
2022-08-26T01:08:55.281Z,97830.44
2022-08-26T01:10:00.596Z,97829.09
2022-08-26T01:11:06.081Z,97833.25
2022-08-26T01:12:09.927Z,97834.59
2022-08-26T01:13:14.290Z,97832.62
2022-08-26T01:14:20.271Z,97831.97
2022-08-26T01:15:28.122Z,97832.00
2022-08-26T01:16:36.756Z,97826.47
2022-08-26T01:17:40.058Z,97833.56
2022-08-26T01:18:44.593Z,97830.19
2022-08-26T01:19:53.271Z,97828.97
2022-08-26T01:21:14.787Z,97824.13
2022-08-26T01:22:26.733Z,97825.56
2022-08-26T01:23:36.454Z,97829.09
2022-08-26T01:24:41.355Z,97827.78
2022-08-26T01:25:49.239Z,97821.41
2022-08-26T01:26:53.152Z,97824.91
2022-08-26T01:27:58.864Z,97824.34
2022-08-26T01:29:04.654Z,97820.13
2022-08-26T01:30:08.191Z,97820.84
2022-08-26T01:31:15.310Z,97819.31
2022-08-26T01:32:23.242Z,97830.97
2022-08-26T01:33:42.379Z,97821.16
2022-08-26T01:34:47.072Z,97822.44
2022-08-26T01:35:50.564Z,97822.56
2022-08-26T01:37:15.600Z,97819.88
2022-08-26T01:38:19.312Z,97818.53
2022-08-26T01:39:22.315Z,97819.31
2022-08-26T01:40:32.229Z,97820.66
2022-08-26T01:41:36.707Z,97816.47
2022-08-26T01:42:41.410Z,97820.03
2022-08-26T01:43:47.026Z,97821.41
2022-08-26T01:45:04.057Z,97812.34
2022-08-26T01:46:07.598Z,97812.31
2022-08-26T01:47:17.997Z,97817.31
2022-08-26T01:48:26.468Z,97819.25
2022-08-26T01:49:29.903Z,97813.59
2022-08-26T01:50:40.923Z,97815.06
2022-08-26T01:51:48.543Z,97816.59
2022-08-26T01:52:54.788Z,97822.19
2022-08-26T01:53:58.689Z,97818.53
2022-08-26T01:55:02.881Z,97810.09
2022-08-26T01:56:07.391Z,97808.59
2022-08-26T01:57:10.778Z,97810.66
2022-08-26T01:58:18.827Z,97811.22
2022-08-26T01:59:24.778Z,97803.53
2022-08-26T02:00:27.783Z,97807.81
2022-08-26T02:01:31.850Z,97815.69
2022-08-26T02:02:34.925Z,97812.75
2022-08-26T02:03:55.982Z,97819.56
2022-08-26T02:05:04.680Z,97813.94
2022-08-26T02:06:09.361Z,97813.28
2022-08-26T02:07:13.232Z,97814.00
2022-08-26T02:08:24.903Z,97804.97
2022-08-26T02:09:28.611Z,97811.78
2022-08-26T02:10:33.884Z,97811.06
2022-08-26T02:11:38.981Z,97816.47
2022-08-26T02:12:42.759Z,97815.78
2022-08-26T02:14:07.780Z,97811.53
2022-08-26T02:15:13.106Z,97819.97
2022-08-26T02:16:19.246Z,97816.00
2022-08-26T02:17:35.362Z,97806.41
2022-08-26T02:18:42.024Z,97809.41
2022-08-26T02:19:48.809Z,97810.31
2022-08-26T02:20:54.738Z,97806.94
2022-08-26T02:22:05.237Z,97816.72
2022-08-26T02:23:09.098Z,97813.34
2022-08-26T02:24:17.294Z,97815.47
2022-08-26T02:25:52.790Z,97808.59
2022-08-26T02:26:57.945Z,97812.28
2022-08-26T02:28:01.562Z,97810.12
2022-08-26T02:29:13.875Z,97810.72
2022-08-26T02:30:28.502Z,97810.12
2022-08-26T02:31:31.630Z,97811.53
2022-08-26T02:32:35.177Z,97806.50
2022-08-26T02:33:38.453Z,97809.16
2022-08-26T02:34:52.963Z,97817.56
2022-08-26T02:35:55.845Z,97812.00
2022-08-26T02:37:05.685Z,97811.31
2022-08-26T02:38:10.060Z,97812.13
2022-08-26T02:39:16.952Z,97803.78
2022-08-26T02:40:29.193Z,97807.31
2022-08-26T02:41:32.489Z,97805.84
2022-08-26T02:42:36.053Z,97803.28
2022-08-26T02:43:40.550Z,97809.03
2022-08-26T02:44:43.485Z,97803.94
2022-08-26T02:45:47.450Z,97807.31
2022-08-26T02:46:51.052Z,97806.72
2022-08-26T02:47:59.629Z,97797.75
2022-08-26T02:49:02.619Z,97801.16
2022-08-26T02:50:06.981Z,97810.25
2022-08-26T02:51:11.643Z,97805.47
2022-08-26T02:52:16.460Z,97801.25
2022-08-26T02:53:25.053Z,97800.53
2022-08-26T02:54:28.530Z,97794.25
2022-08-26T02:55:32.356Z,97800.72
2022-08-26T02:56:35.819Z,97800.75
2022-08-26T02:57:38.736Z,97801.41
2022-08-26T02:58:41.558Z,97802.97
2022-08-26T02:59:44.978Z,97797.34
2022-08-26T03:00:49.296Z,97803.09
2022-08-26T03:01:56.407Z,97805.87
2022-08-26T03:02:59.971Z,97802.38
2022-08-26T03:04:04.650Z,97798.78
2022-08-26T03:05:09.175Z,97804.56
2022-08-26T03:06:12.102Z,97799.56
2022-08-26T03:07:15.165Z,97801.69
2022-08-26T03:08:19.069Z,97801.16
2022-08-26T03:09:22.962Z,97794.69
2022-08-26T03:10:26.582Z,97792.75
2022-08-26T03:11:33.132Z,97796.06
2022-08-26T03:12:37.309Z,97793.94
2022-08-26T03:13:40.452Z,97791.69
2022-08-26T03:14:44.411Z,97796.13
2022-08-26T03:15:47.710Z,97792.56
2022-08-26T03:16:54.400Z,97787.03
2022-08-26T03:17:57.239Z,97793.97
2022-08-26T03:19:01.158Z,97791.94
2022-08-26T03:20:09.945Z,97786.91
2022-08-26T03:21:15.479Z,97781.97
2022-08-26T03:22:18.303Z,97783.47
2022-08-26T03:23:23.754Z,97784.19
2022-08-26T03:24:27.089Z,97784.16
2022-08-26T03:25:30.220Z,97777.94
2022-08-26T03:26:33.228Z,97778.56
2022-08-26T03:27:36.228Z,97782.69
2022-08-26T03:28:59.805Z,97781.97
2022-08-26T03:30:21.032Z,97782.06
2022-08-26T03:31:24.544Z,97787.00
2022-08-26T03:32:27.602Z,97778.78
2022-08-26T03:33:35.021Z,97780.66
2022-08-26T03:34:38.161Z,97781.28
2022-08-26T03:35:43.746Z,97782.06
2022-08-26T03:36:50.445Z,97781.28
2022-08-26T03:37:54.014Z,97781.97
2022-08-26T03:38:57.320Z,97780.44
2022-08-26T03:40:01.362Z,97779.19
2022-08-26T03:41:04.257Z,97781.91
2022-08-26T03:42:10.801Z,97781.91
2022-08-26T03:43:16.289Z,97774.75
2022-08-26T03:44:19.369Z,97776.84
2022-08-26T03:45:26.037Z,97776.19
2022-08-26T03:46:29.347Z,97774.94
2022-08-26T03:47:32.855Z,97772.06
2022-08-26T03:48:36.089Z,97775.50
2022-08-26T03:49:38.898Z,97779.09
2022-08-26T03:50:42.616Z,97781.16
2022-08-26T03:51:45.958Z,97769.91
2022-08-26T03:52:50.051Z,97776.28
2022-08-26T03:53:58.944Z,97775.50
2022-08-26T03:55:01.820Z,97772.72
2022-08-26T03:56:06.836Z,97783.91
2022-08-26T03:57:09.639Z,97772.75
2022-08-26T03:58:12.471Z,97773.97
2022-08-26T03:59:15.306Z,97772.00
2022-08-26T04:00:19.942Z,97774.72
2022-08-26T04:01:22.710Z,97778.91
2022-08-26T04:02:30.179Z,97771.91
2022-08-26T04:03:52.134Z,97768.53
2022-08-26T04:04:55.033Z,97769.84
2022-08-26T04:06:01.972Z,97771.22
2022-08-26T04:07:05.338Z,97766.31
2022-08-26T04:08:08.139Z,97769.13
2022-08-26T04:09:19.935Z,97766.91
2022-08-26T04:10:29.031Z,97780.12
2022-08-26T04:11:34.456Z,97774.72
2022-08-26T04:12:39.191Z,97778.91
2022-08-26T04:13:42.210Z,97778.19
2022-08-26T04:14:45.162Z,97778.09
2022-08-26T04:15:48.142Z,97779.44
2022-08-26T04:16:52.123Z,97781.69
2022-08-26T04:17:56.082Z,97780.28
2022-08-26T04:19:00.997Z,97780.38
2022-08-26T04:20:06.659Z,97782.47
2022-08-26T04:21:10.167Z,97781.81
2022-08-26T04:22:16.258Z,97775.50
2022-08-26T04:23:27.710Z,97780.34
2022-08-26T04:24:30.533Z,97780.41
2022-08-26T04:25:33.450Z,97779.69
2022-08-26T04:26:43.653Z,97783.72
2022-08-26T04:27:46.720Z,97781.78
2022-08-26T04:28:52.881Z,97781.72
2022-08-26T04:29:55.753Z,97771.84
2022-08-26T04:30:58.640Z,97778.81
2022-08-26T04:32:03.380Z,97783.00
2022-08-26T04:33:12.877Z,97777.28
2022-08-26T04:34:17.817Z,97780.28
2022-08-26T04:35:25.714Z,97781.72
2022-08-26T04:36:29.381Z,97779.53
2022-08-26T04:37:33.759Z,97792.81
2022-08-26T04:38:36.836Z,97787.06
2022-08-26T04:39:40.245Z,97788.19
2022-08-26T04:40:46.909Z,97783.28
2022-08-26T04:41:50.905Z,97790.84
2022-08-26T04:42:54.447Z,97786.31
2022-08-26T04:43:57.527Z,97784.16
2022-08-26T04:45:00.526Z,97784.31
2022-08-26T04:46:05.280Z,97785.44
2022-08-26T04:47:08.343Z,97782.72
2022-08-26T04:48:12.181Z,97788.25
2022-08-26T04:49:19.859Z,97789.38
2022-08-26T04:50:24.028Z,97784.97
2022-08-26T04:51:28.276Z,97790.16
2022-08-26T04:52:31.286Z,97793.03
2022-08-26T04:53:34.329Z,97790.13
2022-08-26T04:54:37.285Z,97785.31
2022-08-26T04:55:42.704Z,97788.44
2022-08-26T04:56:50.057Z,97786.47
2022-08-26T04:57:53.895Z,97792.16
2022-08-26T04:58:56.823Z,97790.34
2022-08-26T04:59:59.845Z,97788.88
2022-08-26T05:01:02.991Z,97786.50
2022-08-26T05:02:07.675Z,97788.63
2022-08-26T05:03:12.189Z,97791.56
2022-08-26T05:04:18.833Z,97795.47
2022-08-26T05:05:22.115Z,97795.84
2022-08-26T05:06:25.849Z,97788.84
2022-08-26T05:07:28.829Z,97795.41
2022-08-26T05:08:31.743Z,97795.12
2022-08-26T05:09:34.938Z,97795.88
2022-08-26T05:10:43.503Z,97794.34
2022-08-26T05:11:48.615Z,97801.53
2022-08-26T05:12:55.006Z,97796.41
2022-08-26T05:14:02.118Z,97801.41
2022-08-26T05:15:06.354Z,97798.59
2022-08-26T05:16:12.136Z,97809.22
2022-08-26T05:17:15.286Z,97793.72
2022-08-26T05:18:21.514Z,97795.63
2022-08-26T05:19:25.776Z,97806.56
2022-08-26T05:20:33.011Z,97799.63
2022-08-26T05:21:36.200Z,97801.13
2022-08-26T05:22:39.629Z,97790.72
2022-08-26T05:23:43.375Z,97791.06
2022-08-26T05:24:46.864Z,97794.50
2022-08-26T05:25:55.842Z,97789.31
2022-08-26T05:27:01.139Z,97793.50
2022-08-26T05:28:04.805Z,97794.38
2022-08-26T05:29:08.792Z,97800.66
2022-08-26T05:30:12.222Z,97791.50
2022-08-26T05:31:19.336Z,97792.19
2022-08-26T05:32:22.287Z,97798.78
2022-08-26T05:33:25.109Z,97789.22
2022-08-26T05:34:30.357Z,97795.28
2022-08-26T05:35:34.518Z,97791.41
2022-08-26T05:36:37.919Z,97798.66
2022-08-26T05:37:43.983Z,97802.22
2022-08-26T05:38:47.163Z,97799.56
2022-08-26T05:39:51.426Z,97793.34
2022-08-26T05:40:54.762Z,97805.22
2022-08-26T05:41:57.624Z,97795.66
2022-08-26T05:43:00.578Z,97793.59
2022-08-26T05:44:08.602Z,97798.37
2022-08-26T05:45:13.384Z,97797.00
2022-08-26T05:46:16.339Z,97794.41
2022-08-26T05:47:19.219Z,97792.34
2022-08-26T05:48:24.249Z,97802.81
2022-08-26T05:49:27.480Z,97799.53
2022-08-26T05:50:30.410Z,97800.28
2022-08-26T05:51:33.902Z,97797.66
2022-08-26T05:52:36.704Z,97805.31
2022-08-26T05:53:43.760Z,97799.00
2022-08-26T05:54:57.371Z,97803.34
2022-08-26T05:56:00.532Z,97798.44
2022-08-26T05:57:03.511Z,97806.16
2022-08-26T05:58:06.876Z,97808.31
2022-08-26T05:59:14.694Z,97799.94
2022-08-26T06:00:17.762Z,97802.81
2022-08-26T06:01:24.171Z,97813.34
2022-08-26T06:02:27.103Z,97807.00
2022-08-26T06:03:31.931Z,97804.22
2022-08-26T06:04:36.021Z,97809.12
2022-08-26T06:05:42.542Z,97813.31
2022-08-26T06:06:48.008Z,97807.78
2022-08-26T06:08:09.378Z,97812.16
2022-08-26T06:09:12.548Z,97810.09
2022-08-26T06:10:31.481Z,97810.84
2022-08-26T06:11:35.099Z,97810.97
2022-08-26T06:12:37.892Z,97812.00
2022-08-26T06:13:41.353Z,97815.06
2022-08-26T06:14:44.950Z,97808.56
2022-08-26T06:15:56.169Z,97812.09
2022-08-26T06:16:59.043Z,97810.69
2022-08-26T06:18:01.832Z,97813.59
2022-08-26T06:19:10.261Z,97818.66
2022-08-26T06:20:14.048Z,97811.78
2022-08-26T06:21:19.362Z,97820.09
2022-08-26T06:22:41.101Z,97818.00
2022-08-26T06:24:04.639Z,97818.69
2022-08-26T06:25:26.791Z,97825.22
2022-08-26T06:26:30.093Z,97821.63
2022-08-26T06:27:34.756Z,97820.94
2022-08-26T06:28:38.430Z,97822.75
2022-08-26T06:29:41.943Z,97827.66
2022-08-26T06:30:44.914Z,97820.53
2022-08-26T06:31:47.992Z,97823.22
2022-08-26T06:32:50.926Z,97825.47
2022-08-26T06:33:56.731Z,97821.34
2022-08-26T06:34:59.714Z,97827.66
2022-08-26T06:36:05.214Z,97820.84
2022-08-26T06:37:09.081Z,97821.00
2022-08-26T06:38:12.267Z,97814.72
2022-08-26T06:39:17.914Z,97818.19
2022-08-26T06:40:23.051Z,97821.66
2022-08-26T06:41:26.079Z,97822.47
2022-08-26T06:42:28.980Z,97823.81
2022-08-26T06:43:31.740Z,97821.84
2022-08-26T06:44:36.042Z,97825.38
2022-08-26T06:45:40.064Z,97822.63
2022-08-26T06:46:44.728Z,97819.84
2022-08-26T06:47:47.863Z,97824.09
2022-08-26T06:48:54.440Z,97817.06
2022-08-26T06:49:57.556Z,97818.03
2022-08-26T06:51:22.309Z,97823.47
2022-08-26T06:52:26.674Z,97823.25
2022-08-26T06:53:29.576Z,97827.59
2022-08-26T06:54:32.644Z,97832.31
2022-08-26T06:55:43.627Z,97823.25
2022-08-26T06:56:47.952Z,97816.97
2022-08-26T06:57:50.968Z,97816.31
2022-08-26T06:58:54.270Z,97817.78
2022-08-26T06:59:58.910Z,97817.09
2022-08-26T07:01:09.084Z,97822.03
2022-08-26T07:02:15.336Z,97820.72
2022-08-26T07:03:22.442Z,97826.97
2022-08-26T07:04:27.956Z,97827.59
2022-08-26T07:05:31.148Z,97823.44
2022-08-26T07:06:40.038Z,97827.75
2022-08-26T07:07:42.965Z,97824.22
2022-08-26T07:08:47.464Z,97822.81
2022-08-26T07:09:52.395Z,97816.50
2022-08-26T07:10:55.930Z,97825.78
2022-08-26T07:11:59.603Z,97824.44
2022-08-26T07:13:02.552Z,97820.06
2022-08-26T07:14:06.994Z,97815.94
2022-08-26T07:15:10.550Z,97821.06
2022-08-26T07:16:18.316Z,97818.97
2022-08-26T07:17:21.218Z,97813.97
2022-08-26T07:18:28.060Z,97812.56
2022-08-26T07:19:31.902Z,97823.88
2022-08-26T07:20:40.597Z,97827.41
2022-08-26T07:21:45.974Z,97821.78
2022-08-26T07:22:50.360Z,97822.66
2022-08-26T07:23:58.707Z,97824.81
2022-08-26T07:25:07.960Z,97829.69
2022-08-26T07:26:16.545Z,97825.50
2022-08-26T07:27:19.936Z,97824.16
2022-08-26T07:28:23.939Z,97818.63
2022-08-26T07:29:29.487Z,97820.72
2022-08-26T07:30:32.435Z,97821.37
2022-08-26T07:31:39.575Z,97822.81
2022-08-26T07:32:45.882Z,97815.06
2022-08-26T07:33:49.034Z,97818.63
2022-08-26T07:34:54.312Z,97818.63
2022-08-26T07:35:57.299Z,97817.34
2022-08-26T07:37:00.726Z,97822.91
2022-08-26T07:38:04.318Z,97814.41
2022-08-26T07:39:08.043Z,97813.13
2022-08-26T07:40:12.065Z,97812.47
2022-08-26T07:41:17.760Z,97818.12
2022-08-26T07:42:22.617Z,97815.31
2022-08-26T07:43:27.036Z,97823.78
2022-08-26T07:44:32.211Z,97819.53
2022-08-26T07:45:35.179Z,97811.81
2022-08-26T07:46:38.503Z,97818.88
2022-08-26T07:47:41.639Z,97817.44
2022-08-26T07:48:46.822Z,97822.34
2022-08-26T07:49:52.873Z,97823.06
2022-08-26T07:50:57.343Z,97821.69
2022-08-26T07:52:01.208Z,97825.97
2022-08-26T07:53:04.902Z,97823.88
2022-08-26T07:54:07.969Z,97821.06
2022-08-26T07:55:11.400Z,97821.06
2022-08-26T07:56:14.464Z,97830.22
2022-08-26T07:57:17.329Z,97826.69
2022-08-26T07:58:21.987Z,97828.09
2022-08-26T07:59:25.681Z,97826.00
2022-08-26T08:00:29.825Z,97828.81
2022-08-26T08:01:33.227Z,97823.88
2022-08-26T08:02:37.129Z,97823.88
2022-08-26T08:03:40.785Z,97827.41
2022-08-26T08:04:44.169Z,97822.47
2022-08-26T08:05:47.290Z,97823.88
2022-08-26T08:06:50.506Z,97830.91
2022-08-26T08:07:53.685Z,97827.38
2022-08-26T08:09:16.491Z,97827.38
2022-08-26T08:10:22.828Z,97828.81
2022-08-26T08:11:31.421Z,97822.44
2022-08-26T08:12:34.508Z,97829.50
2022-08-26T08:13:38.599Z,97821.75
2022-08-26T08:14:45.398Z,97821.03
2022-08-26T08:15:48.273Z,97819.66
2022-08-26T08:16:54.759Z,97824.56
2022-08-26T08:18:00.699Z,97823.16
2022-08-26T08:19:04.015Z,97826.00
2022-08-26T08:20:08.943Z,97824.56
2022-08-26T08:21:21.697Z,97823.84
2022-08-26T08:22:25.662Z,97818.22
2022-08-26T08:23:31.829Z,97818.91
2022-08-26T08:24:35.525Z,97824.53
2022-08-26T08:25:38.524Z,97821.75
2022-08-26T08:26:41.974Z,97820.34
2022-08-26T08:27:45.834Z,97823.81
2022-08-26T08:28:48.842Z,97825.28
2022-08-26T08:29:55.025Z,97816.13
2022-08-26T08:30:58.427Z,97816.84
2022-08-26T08:32:03.326Z,97818.19
2022-08-26T08:33:07.822Z,97814.56
2022-08-26T08:34:10.789Z,97814.56
2022-08-26T08:35:17.574Z,97821.56
2022-08-26T08:36:20.581Z,97813.22
2022-08-26T08:37:23.731Z,97814.69
2022-08-26T08:38:27.482Z,97816.03
2022-08-26T08:39:32.444Z,97812.50
2022-08-26T08:40:41.838Z,97814.66
2022-08-26T08:41:59.661Z,97817.41
2022-08-26T08:43:11.056Z,97814.59
2022-08-26T08:44:20.443Z,97811.78
2022-08-26T08:45:35.911Z,97810.25
2022-08-26T08:46:42.646Z,97812.16
2022-08-26T08:47:56.886Z,97815.66
2022-08-26T08:49:00.365Z,97808.63
2022-08-26T08:50:22.060Z,97815.63
2022-08-26T08:51:40.393Z,97820.44
2022-08-26T08:52:47.582Z,97815.00
2022-08-26T08:53:54.605Z,97815.13
2022-08-26T08:54:58.445Z,97822.94
2022-08-26T08:56:24.512Z,97813.09
2022-08-26T08:57:39.356Z,97814.97
2022-08-26T08:59:16.502Z,97817.81
2022-08-26T09:00:30.377Z,97812.84
2022-08-26T09:01:45.964Z,97808.63
2022-08-26T09:02:59.987Z,97800.97
2022-08-26T09:04:25.260Z,97799.28
2022-08-26T09:05:36.144Z,97801.19
2022-08-26T09:06:41.084Z,97802.16
2022-08-26T09:07:52.663Z,97798.53
2022-08-26T09:08:57.594Z,97805.75
2022-08-26T09:10:20.546Z,97801.69
2022-08-26T09:11:23.712Z,97797.81
2022-08-26T09:12:31.415Z,97802.06
2022-08-26T09:13:34.509Z,97795.72
2022-08-26T09:14:38.752Z,97800.66
2022-08-26T09:15:54.286Z,97800.66
2022-08-26T09:17:35.752Z,97790.44
2022-08-26T09:19:07.685Z,97789.03
2022-08-26T09:20:34.089Z,97799.38
2022-08-26T09:21:37.841Z,97789.88
2022-08-26T09:22:44.240Z,97791.28
2022-08-26T09:23:49.638Z,97792.66
2022-08-26T09:24:53.139Z,97793.41
2022-08-26T09:26:03.139Z,97781.69
2022-08-26T09:27:07.415Z,97780.72
2022-08-26T09:28:19.239Z,97779.16
2022-08-26T09:29:28.023Z,97776.16
2022-08-26T09:30:38.252Z,97779.12
2022-08-26T09:31:41.691Z,97781.75
2022-08-26T09:33:06.621Z,97781.78
2022-08-26T09:34:28.063Z,97782.09
2022-08-26T09:35:38.124Z,97780.09
2022-08-26T09:36:45.100Z,97782.13
2022-08-26T09:38:53.933Z,97776.78
2022-08-26T09:40:23.637Z,97775.47
2022-08-26T09:41:33.279Z,97779.47
2022-08-26T09:42:36.252Z,97774.41
2022-08-26T09:43:39.005Z,97779.25
2022-08-26T09:45:08.581Z,97779.41
2022-08-26T09:46:18.768Z,97782.34
2022-08-26T09:47:30.423Z,97777.56
2022-08-26T09:48:37.484Z,97782.59
2022-08-26T09:49:46.148Z,97785.59
2022-08-26T09:51:03.771Z,97782.94
2022-08-26T09:52:23.751Z,97786.88
2022-08-26T09:53:31.173Z,97783.84
2022-08-26T09:54:34.886Z,97784.97
2022-08-26T09:55:42.404Z,97777.44
2022-08-26T09:56:46.663Z,97776.22
2022-08-26T09:57:52.681Z,97771.84
2022-08-26T09:58:57.411Z,97780.69
2022-08-26T10:00:01.678Z,97777.84
2022-08-26T10:01:08.772Z,97779.28
2022-08-26T10:02:36.198Z,97772.69
2022-08-26T10:03:40.138Z,97781.59
2022-08-26T10:04:51.893Z,97772.28
2022-08-26T10:06:03.628Z,97772.19
2022-08-26T10:07:10.227Z,97771.69
2022-08-26T10:08:42.082Z,97776.78
2022-08-26T10:09:48.404Z,97781.22
2022-08-26T10:10:57.770Z,97772.59
2022-08-26T10:12:08.334Z,97772.12
2022-08-26T10:13:18.259Z,97771.25
2022-08-26T10:14:33.789Z,97771.59
2022-08-26T10:15:53.113Z,97774.72
2022-08-26T10:17:01.785Z,97767.06
2022-08-26T10:18:14.577Z,97772.47
2022-08-26T10:19:25.622Z,97774.44
2022-08-26T10:21:12.771Z,97764.72
2022-08-26T10:22:25.197Z,97769.22
2022-08-26T10:23:32.695Z,97767.50
2022-08-26T10:24:42.086Z,97766.56
2022-08-26T10:25:55.220Z,97770.56
2022-08-26T10:27:11.385Z,97764.47
2022-08-26T10:28:30.953Z,97765.41
2022-08-26T10:29:40.528Z,97765.69
2022-08-26T10:30:51.504Z,97764.91
2022-08-26T10:32:03.432Z,97761.63
2022-08-26T10:33:13.598Z,97762.25
2022-08-26T10:34:18.301Z,97763.47
2022-08-26T10:35:24.570Z,97763.00
2022-08-26T10:38:17.431Z,97756.03
2022-08-26T10:39:26.892Z,97754.06
2022-08-26T10:41:02.839Z,97755.28
2022-08-26T10:42:28.853Z,97755.84
2022-08-26T10:43:41.851Z,97756.72
2022-08-26T10:44:48.500Z,97752.50
2022-08-26T10:46:04.905Z,97754.88
2022-08-26T10:47:16.995Z,97746.25
2022-08-26T10:48:42.954Z,97751.75
2022-08-26T10:49:49.738Z,97748.34
2022-08-26T10:50:53.091Z,97744.84
2022-08-26T10:51:58.732Z,97747.19
2022-08-26T10:53:25.283Z,97751.06
2022-08-26T10:54:43.619Z,97742.72
2022-08-26T10:56:15.855Z,97747.13
2022-08-26T10:57:48.343Z,97740.81
2022-08-26T10:58:58.887Z,97735.06
2022-08-26T11:00:41.521Z,97740.28
2022-08-26T11:01:52.783Z,97733.00
2022-08-26T11:03:03.522Z,97737.44
2022-08-26T11:04:28.572Z,97735.28
2022-08-26T11:05:31.633Z,97743.31
2022-08-26T11:06:37.053Z,97736.84
2022-08-26T11:07:46.299Z,97738.25
2022-08-26T11:08:52.926Z,97739.31
2022-08-26T11:09:56.727Z,97734.63
2022-08-26T11:11:00.701Z,97724.47
2022-08-26T11:12:09.976Z,97729.50
2022-08-26T11:13:13.941Z,97731.91
2022-08-26T11:14:41.119Z,97731.06
2022-08-26T11:15:54.976Z,97726.38
2022-08-26T11:16:59.138Z,97734.03
2022-08-26T11:18:05.866Z,97735.72
2022-08-26T11:19:12.034Z,97722.34
2022-08-26T11:20:23.802Z,97727.75
2022-08-26T11:21:49.535Z,97732.25
2022-08-26T11:22:55.729Z,97733.06
2022-08-26T11:23:58.612Z,97718.62
2022-08-26T11:25:09.500Z,97723.78
2022-08-26T11:26:30.052Z,97723.13
2022-08-26T11:27:47.195Z,97719.63
2022-08-26T11:28:54.318Z,97719.72
2022-08-26T11:30:05.481Z,97717.34
2022-08-26T11:31:10.763Z,97712.22
2022-08-26T11:32:48.720Z,97709.63
2022-08-26T11:33:57.399Z,97705.94
2022-08-26T11:35:04.822Z,97707.56
2022-08-26T11:36:12.205Z,97716.16
2022-08-26T11:37:17.812Z,97704.81
2022-08-26T11:38:28.772Z,97705.00
2022-08-26T11:40:09.503Z,97708.63
2022-08-26T11:41:22.426Z,97703.09
2022-08-26T11:42:43.045Z,97697.81
2022-08-26T11:43:49.540Z,97699.41
2022-08-26T11:44:58.106Z,97703.78
2022-08-26T11:46:06.184Z,97702.16
2022-08-26T11:47:17.919Z,97698.06
2022-08-26T11:48:30.831Z,97696.16
2022-08-26T11:49:34.022Z,97699.19
2022-08-26T11:50:37.692Z,97690.13
2022-08-26T11:51:42.554Z,97688.69
2022-08-26T11:53:02.426Z,97691.59
2022-08-26T11:54:10.983Z,97686.34
2022-08-26T11:55:15.335Z,97694.69
2022-08-26T11:56:24.801Z,97691.53
2022-08-26T11:57:29.867Z,97695.06
2022-08-26T11:58:33.356Z,97688.62
2022-08-26T11:59:41.028Z,97685.31
2022-08-26T12:00:45.605Z,97683.37
2022-08-26T12:01:51.092Z,97685.59
2022-08-26T12:02:55.760Z,97683.22
2022-08-26T12:04:04.198Z,97674.75
2022-08-26T12:05:08.807Z,97681.16
2022-08-26T12:06:29.027Z,97678.56
2022-08-26T12:07:34.077Z,97674.16
2022-08-26T12:08:44.340Z,97677.59
2022-08-26T12:10:02.491Z,97670.41
2022-08-26T12:11:09.781Z,97669.25
2022-08-26T12:12:22.411Z,97673.56
2022-08-26T12:13:26.637Z,97669.47
2022-08-26T12:14:29.601Z,97669.53
2022-08-26T12:15:35.179Z,97673.06
2022-08-26T12:16:40.010Z,97667.16
2022-08-26T12:17:44.720Z,97663.69
2022-08-26T12:18:49.782Z,97665.28
2022-08-26T12:19:52.741Z,97659.94
2022-08-26T12:20:56.602Z,97665.56
2022-08-26T12:22:15.823Z,97656.78
2022-08-26T12:23:23.839Z,97654.53
2022-08-26T12:24:26.953Z,97654.13
2022-08-26T12:25:32.937Z,97656.13
2022-08-26T12:26:39.869Z,97653.94
2022-08-26T12:27:44.923Z,97651.41
2022-08-26T12:28:55.137Z,97648.19
2022-08-26T12:30:08.735Z,97646.44
2022-08-26T12:31:11.803Z,97654.56
2022-08-26T12:32:18.741Z,97647.84
2022-08-26T12:33:23.318Z,97641.97
2022-08-26T12:34:28.627Z,97643.13
2022-08-26T12:35:33.783Z,97645.66
2022-08-26T12:36:43.261Z,97643.81
2022-08-26T12:37:53.546Z,97641.75
2022-08-26T12:38:58.443Z,97647.25
2022-08-26T12:40:40.273Z,97641.81
2022-08-26T12:41:50.751Z,97637.84
2022-08-26T12:42:54.269Z,97636.56
2022-08-26T12:43:57.466Z,97636.56
2022-08-26T12:45:04.334Z,97633.41
2022-08-26T12:46:11.523Z,97633.41
2022-08-26T12:47:41.799Z,97631.44
2022-08-26T12:48:49.708Z,97632.63
2022-08-26T12:50:07.274Z,97634.91
2022-08-26T12:51:26.303Z,97634.47
2022-08-26T12:52:31.758Z,97630.37
2022-08-26T12:53:42.233Z,97626.19
2022-08-26T12:54:59.684Z,97631.84
2022-08-26T12:56:39.443Z,97627.50
2022-08-26T12:57:42.403Z,97621.94
2022-08-26T12:59:00.207Z,97626.00
2022-08-26T13:00:29.517Z,97623.53
2022-08-26T13:01:44.809Z,97623.03
2022-08-26T13:02:48.028Z,97621.19
2022-08-26T13:03:52.096Z,97616.09
2022-08-26T13:05:00.935Z,97621.53
2022-08-26T13:06:23.979Z,97614.00
2022-08-26T13:07:27.338Z,97618.62
2022-08-26T13:08:31.437Z,97611.91
2022-08-26T13:09:36.720Z,97610.81
2022-08-26T13:10:43.902Z,97616.72
2022-08-26T13:11:46.896Z,97609.97
2022-08-26T13:12:50.014Z,97606.50
2022-08-26T13:13:59.375Z,97605.31
2022-08-26T13:15:04.102Z,97611.66
2022-08-26T13:16:08.015Z,97607.53
2022-08-26T13:17:10.948Z,97606.19